Time;durP1;ratioP1;P1;durP2;ratioP2;P2;SDS_P1;SDS_P2;PMS_P1;PMS_P2;Temp;Humidity;BMP_temperature;BMP_pressure;BME280_temperature;BME280_humidity;BME280_pressure;Samples;Min_cycle;Max_cycle;Signal;HPM_P1;HPM_P2
2022/03/26 00:00:10;;;;;;;;;;;;;;;;;;1052061;28;2323;-70
2022/03/26 00:01:03;;;;;;;;;;;;;;;;;;1047099;28;4024;-69
2022/03/26 00:01:33;;;;;;;;;;;;;;;;;;1049849;28;3825;-68
2022/03/26 00:02:03;;;;;;;;;;;;;;;;;;1047086;28;2608;-68
2022/03/26 00:02:33;;;;;;;;;;;;;;;;;;1051229;28;3839;-71
2022/03/26 00:03:11;;;;;;;;;;;;;;;;;;1053227;28;2395;-71
2022/03/26 00:03:41;;;;;;;;;;;;;;;;;;1053065;28;3836;-70
2022/03/26 00:04:12;;;;;;;;;;;;;;;;;;1051286;28;2866;-69
2022/03/26 00:04:42;;;;;;;;;;;;;;;;;;1051519;28;3785;-69
2022/03/26 00:05:12;;;;;;;;;;;;;;;;;;1052177;28;3734;-70
2022/03/26 00:05:45;;;;;;;;;;;;;;;;;;1049257;28;4828;-70
2022/03/26 00:06:16;;;;;;;;;;;;;;;;;;1048824;28;2033;-68
2022/03/26 00:06:46;;;;;;;;;;;;;;;;;;1049339;28;3780;-67
2022/03/26 00:07:16;;;;;;;;;;;;;;;;;;1048039;28;2518;-69
2022/03/26 00:07:46;;;;;;;;;;;;;;;;;;1047865;28;3757;-69
2022/03/26 00:08:17;;;;;;;;;;;;;;;;;;1052777;28;2505;-69
2022/03/26 00:08:49;;;;;;;;;;;;;;;;;;1050196;28;4013;-71
2022/03/26 00:09:19;;;;;;;;;;;;;;;;;;1053348;28;3089;-67
2022/03/26 00:09:49;;;;;;;;;;;;;;;;;;1053066;28;3985;-68
2022/03/26 00:10:19;;;;;;;;;;;;;;;;;;1053518;28;2404;-70
2022/03/26 00:10:50;;;;;;;;;;;;;;;;;;1053129;28;3793;-68
2022/03/26 00:11:20;;;;;;;;;;;;;;;;;;1053609;28;2602;-69
2022/03/26 00:11:50;;;;;;;;;;;;;;;;;;1051602;28;3775;-71
2022/03/26 00:12:21;;;;;;;;;;;;;;;;;;1054441;28;1626;-67
2022/03/26 00:12:52;;;;;;;;;;;;;;;;;;1053884;28;3793;-68
2022/03/26 00:13:23;;;;;;;;;;;;;;;;;;1053010;28;1926;-69
2022/03/26 00:13:53;;;;;;;;;;;;;;;;;;1052148;28;3797;-70
2022/03/26 00:14:23;;;;;;;;;;;;;;;;;;1053932;28;2301;-69
2022/03/26 00:14:54;;;;;;;;;;;;;;;;;;1052412;28;3759;-70
2022/03/26 00:15:24;;;;;;;;;;;;;;;;;;1053238;28;2092;-69
2022/03/26 00:15:55;;;;;;;;;;;;;;;;;;1052910;28;4048;-67
2022/03/26 00:16:25;;;;;;;;;;;;;;;;;;1054267;28;2202;-71
2022/03/26 00:16:55;;;;;;;;;;;;;;;;;;1050558;28;3777;-67
2022/03/26 00:17:25;;;;;;;;;;;;;;;;;;1054248;28;2098;-68
2022/03/26 00:17:56;;;;;;;;;;;;;;;;;;1052190;28;3768;-69
2022/03/26 00:18:26;;;;;;;;;;;;;;;;;;1054520;28;2210;-68
2022/03/26 00:18:56;;;;;;;;;;;;;;;;;;1051194;28;3842;-70
2022/03/26 00:19:27;;;;;;;;;;;;;;;;;;1048044;28;2477;-70
2022/03/26 00:19:58;;;;;;;;;;;;;;;;;;1046704;28;3894;-70
2022/03/26 00:20:28;;;;;;;;;;;;;;;;;;1047796;28;2827;-69
2022/03/26 00:20:58;;;;;;;;;;;;;;;;;;1046759;28;3811;-68
2022/03/26 00:21:28;;;;;;;;;;;;;;;;;;1053792;28;2352;-69
2022/03/26 00:21:58;;;;;;;;;;;;;;;;;;1051076;28;3874;-69
2022/03/26 00:22:29;;;;;;;;;;;;;;;;;;1053679;28;2546;-71
2022/03/26 00:22:59;;;;;;;;;;;;;;;;;;1052365;28;4193;-69
2022/03/26 00:23:29;;;;;;;;;;;;;;;;;;1052618;28;2592;-69
2022/03/26 00:23:59;;;;;;;;;;;;;;;;;;1050205;28;3740;-68
2022/03/26 00:24:30;;;;;;;;;;;;;;;;;;1052420;28;2716;-68
2022/03/26 00:25:00;;;;;;;;;;;;;;;;;;1051491;28;3734;-69
2022/03/26 00:25:30;;;;;;;;;;;;;;;;;;1053628;28;2458;-68
2022/03/26 00:26:01;;;;;;;;;;;;;;;;;;1052069;28;3705;-67
2022/03/26 00:26:31;;;;;;;;;;;;;;;;;;1053314;28;2527;-68
2022/03/26 00:27:01;;;;;;;;;;;;;;;;;;1047878;28;3882;-69
2022/03/26 00:27:32;;;;;;;;;;;;;;;;;;1048979;28;3443;-69
2022/03/26 00:28:03;;;;;;;;;;;;;;;;;;1049380;28;3787;-68
2022/03/26 00:28:37;;;;;;;;;;;;;;;;;;1049726;28;3809;-68
2022/03/26 00:29:08;;;;;;;;;;;;;;;;;;1049878;28;3053;-70
2022/03/26 00:29:38;;;;;;;;;;;;;;;;;;1047897;28;3792;-71
2022/03/26 00:30:10;;;;;;;;;;;;;;;;;;1049927;28;1977;-68
2022/03/26 00:30:40;;;;;;;;;;;;;;;;;;1050055;28;3812;-69
2022/03/26 00:31:12;;;;;;;;;;;;;;;;;;1054709;28;1911;-68
2022/03/26 00:31:42;;;;;;;;;;;;;;;;;;1052711;28;3790;-68
2022/03/26 00:32:12;;;;;;;;;;;;;;;;;;1054322;28;1689;-70
2022/03/26 00:32:42;;;;;;;;;;;;;;;;;;1052559;28;3821;-69
2022/03/26 00:33:13;;;;;;;;;;;;;;;;;;1049696;28;2484;-69
2022/03/26 00:33:43;;;;;;;;;;;;;;;;;;1048593;28;3890;-67
2022/03/26 00:34:13;;;;;;;;;;;;;;;;;;1047572;28;2935;-68
2022/03/26 00:34:44;;;;;;;;;;;;;;;;;;1048853;28;3814;-68
2022/03/26 00:35:14;;;;;;;;;;;;;;;;;;1053050;28;3001;-67
2022/03/26 00:35:45;;;;;;;;;;;;;;;;;;1053099;28;3789;-68
2022/03/26 00:36:15;;;;;;;;;;;;;;;;;;1053662;28;1781;-69
2022/03/26 00:36:45;;;;;;;;;;;;;;;;;;1053592;28;3984;-70
2022/03/26 00:37:16;;;;;;;;;;;;;;;;;;1053779;28;2495;-69
2022/03/26 00:37:46;;;;;;;;;;;;;;;;;;1052851;28;3790;-70
2022/03/26 00:38:16;;;;;;;;;;;;;;;;;;1053453;28;3089;-72
2022/03/26 00:38:46;;;;;;;;;;;;;;;;;;1052329;28;4200;-69
2022/03/26 00:39:30;;;;;;;;;;;;;;;;;;1052996;28;1709;-69
2022/03/26 00:40:08;;;;;;;;;;;;;;;;;;1052539;28;3753;-71
2022/03/26 00:40:40;;;;;;;;;;;;;;;;;;1054050;28;3825;-70
2022/03/26 00:41:10;;;;;;;;;;;;;;;;;;1052404;28;2523;-70
2022/03/26 00:41:41;;;;;;;;;;;;;;;;;;1053555;28;3789;-71
2022/03/26 00:42:11;;;;;;;;;;;;;;;;;;1052708;28;2257;-68
2022/03/26 00:42:41;;;;;;;;;;;;;;;;;;1052855;28;3854;-69
2022/03/26 00:43:12;;;;;;;;;;;;;;;;;;1052330;28;2226;-69
2022/03/26 00:43:42;;;;;;;;;;;;;;;;;;1051153;28;3857;-68
2022/03/26 00:44:12;;;;;;;;;;;;;;;;;;1054541;28;2553;-68
2022/03/26 00:44:42;;;;;;;;;;;;;;;;;;1053701;28;4030;-67
2022/03/26 00:45:13;;;;;;;;;;;;;;;;;;1052779;28;2670;-70
2022/03/26 00:45:43;;;;;;;;;;;;;;;;;;1052740;28;3846;-68
2022/03/26 00:46:13;;;;;;;;;;;;;;;;;;1050499;28;2630;-71
2022/03/26 00:46:47;;;;;;;;;;;;;;;;;;1050909;27;3818;-69
2022/03/26 00:47:17;;;;;;;;;;;;;;;;;;1051850;28;3142;-70
2022/03/26 00:47:55;;;;;;;;;;;;;;;;;;1047764;28;3788;-71
2022/03/26 00:48:25;;;;;;;;;;;;;;;;;;1048777;28;2403;-68
2022/03/26 00:48:59;;;;;;;;;;;;;;;;;;1044956;28;4229;-70
2022/03/26 00:49:30;;;;;;;;;;;;;;;;;;1048656;28;2378;-69
2022/03/26 00:50:00;;;;;;;;;;;;;;;;;;1047660;28;3805;-68
2022/03/26 00:50:30;;;;;;;;;;;;;;;;;;1050333;28;2484;-70
2022/03/26 00:51:01;;;;;;;;;;;;;;;;;;1052102;28;3731;-68
2022/03/26 00:51:31;;;;;;;;;;;;;;;;;;1054272;28;2510;-67
2022/03/26 00:52:03;;;;;;;;;;;;;;;;;;1051117;28;3797;-68
2022/03/26 00:52:33;;;;;;;;;;;;;;;;;;1052760;28;4237;-70
2022/03/26 00:53:03;;;;;;;;;;;;;;;;;;1052274;28;2324;-68
2022/03/26 00:53:33;;;;;;;;;;;;;;;;;;1052941;28;4268;-68
2022/03/26 00:54:04;;;;;;;;;;;;;;;;;;1052466;28;2598;-71
2022/03/26 00:54:34;;;;;;;;;;;;;;;;;;1053127;28;3817;-68
2022/03/26 00:55:05;;;;;;;;;;;;;;;;;;1051401;28;3204;-68
2022/03/26 00:55:35;;;;;;;;;;;;;;;;;;1053242;28;4015;-70
2022/03/26 00:56:05;;;;;;;;;;;;;;;;;;1051880;28;2366;-67
2022/03/26 00:56:36;;;;;;;;;;;;;;;;;;1052254;28;3829;-70
2022/03/26 00:57:06;;;;;;;;;;;;;;;;;;1049080;28;3284;-69
2022/03/26 00:57:36;;;;;;;;;;;;;;;;;;1042894;28;3783;-71
2022/03/26 00:58:07;;;;;;;;;;;;;;;;;;1046287;28;2538;-68
2022/03/26 00:58:38;;;;;;;;;;;;;;;;;;1039271;28;3796;-70
2022/03/26 00:59:08;;;;;;;;;;;;;;;;;;1045092;28;2577;-69
2022/03/26 00:59:38;;;;;;;;;;;;;;;;;;1048610;28;3814;-70
2022/03/26 01:00:09;;;;;;;;;;;;;;;;;;1049648;28;2876;-69
2022/03/26 01:00:42;;;;;;;;;;;;;;;;;;1052296;28;3873;-69
2022/03/26 01:01:12;;;;;;;;;;;;;;;;;;1052391;28;3012;-69
2022/03/26 01:01:42;;;;;;;;;;;;;;;;;;1052624;28;3790;-71
2022/03/26 01:02:13;;;;;;;;;;;;;;;;;;1053493;28;2661;-68
2022/03/26 01:02:43;;;;;;;;;;;;;;;;;;1052802;28;3790;-67
2022/03/26 01:03:16;;;;;;;;;;;;;;;;;;1051263;28;2510;-69
2022/03/26 01:03:46;;;;;;;;;;;;;;;;;;1053160;28;3884;-69
2022/03/26 01:04:17;;;;;;;;;;;;;;;;;;1051946;28;2874;-71
2022/03/26 01:04:47;;;;;;;;;;;;;;;;;;1051699;28;3876;-69
2022/03/26 01:05:17;;;;;;;;;;;;;;;;;;1053255;28;2498;-67
2022/03/26 01:05:48;;;;;;;;;;;;;;;;;;1053441;28;3865;-71
2022/03/26 01:06:18;;;;;;;;;;;;;;;;;;1052684;28;2510;-69
2022/03/26 01:06:49;;;;;;;;;;;;;;;;;;1052166;28;3778;-67
2022/03/26 01:07:19;;;;;;;;;;;;;;;;;;1053318;28;2662;-70
2022/03/26 01:07:50;;;;;;;;;;;;;;;;;;1052388;28;3877;-69
2022/03/26 01:08:20;;;;;;;;;;;;;;;;;;1053400;28;2831;-67
2022/03/26 01:08:50;;;;;;;;;;;;;;;;;;1046552;28;3897;-71
2022/03/26 01:09:21;;;;;;;;;;;;;;;;;;1048589;28;2709;-68
2022/03/26 01:09:51;;;;;;;;;;;;;;;;;;1042108;28;3831;-69
2022/03/26 01:10:22;;;;;;;;;;;;;;;;;;1045541;28;2543;-70
2022/03/26 01:10:52;;;;;;;;;;;;;;;;;;1046301;28;3890;-68
2022/03/26 01:11:22;;;;;;;;;;;;;;;;;;1049329;28;1976;-69
2022/03/26 01:11:53;;;;;;;;;;;;;;;;;;1051944;28;3795;-70
2022/03/26 01:12:23;;;;;;;;;;;;;;;;;;1053020;28;2853;-69
2022/03/26 01:12:54;;;;;;;;;;;;;;;;;;1052834;28;3869;-67
2022/03/26 01:13:25;;;;;;;;;;;;;;;;;;1049213;28;3121;-69
2022/03/26 01:13:56;;;;;;;;;;;;;;;;;;1046756;28;4239;-67
2022/03/26 01:14:27;;;;;;;;;;;;;;;;;;1049492;28;2212;-70
2022/03/26 01:14:57;;;;;;;;;;;;;;;;;;1048099;28;3781;-69
2022/03/26 01:15:27;;;;;;;;;;;;;;;;;;1045475;28;2477;-70
2022/03/26 01:15:57;;;;;;;;;;;;;;;;;;1049089;28;3795;-69
2022/03/26 01:16:28;;;;;;;;;;;;;;;;;;1047772;28;1828;-69
2022/03/26 01:16:58;;;;;;;;;;;;;;;;;;1047622;28;3781;-68
2022/03/26 01:17:29;;;;;;;;;;;;;;;;;;1054058;28;2722;-69
2022/03/26 01:17:59;;;;;;;;;;;;;;;;;;1053291;28;3777;-71
2022/03/26 01:18:29;;;;;;;;;;;;;;;;;;1049614;28;2478;-69
2022/03/26 01:19:00;;;;;;;;;;;;;;;;;;1049213;28;3785;-70
2022/03/26 01:19:30;;;;;;;;;;;;;;;;;;1049296;28;2578;-69
2022/03/26 01:20:01;;;;;;;;;;;;;;;;;;1047715;28;3843;-70
2022/03/26 01:20:31;;;;;;;;;;;;;;;;;;1053948;28;2369;-69
2022/03/26 01:21:02;;;;;;;;;;;;;;;;;;1051463;28;3775;-70
2022/03/26 01:21:32;;;;;;;;;;;;;;;;;;1046431;28;2020;-69
2022/03/26 01:22:02;;;;;;;;;;;;;;;;;;1044157;28;3630;-69
2022/03/26 01:22:33;;;;;;;;;;;;;;;;;;1045047;28;3916;-68
2022/03/26 01:23:03;;;;;;;;;;;;;;;;;;1044270;28;2848;-69
2022/03/26 01:23:34;;;;;;;;;;;;;;;;;;1051902;28;3849;-70
2022/03/26 01:24:04;;;;;;;;;;;;;;;;;;1052296;28;2849;-72
2022/03/26 01:24:35;;;;;;;;;;;;;;;;;;1052800;28;3889;-68
2022/03/26 01:25:05;;;;;;;;;;;;;;;;;;1052747;28;2830;-69
2022/03/26 01:25:36;;;;;;;;;;;;;;;;;;1053297;28;3806;-71
2022/03/26 01:26:06;;;;;;;;;;;;;;;;;;1052256;28;2369;-71
2022/03/26 01:26:37;;;;;;;;;;;;;;;;;;1053840;28;3851;-67
2022/03/26 01:27:07;;;;;;;;;;;;;;;;;;1052790;28;2862;-71
2022/03/26 01:27:37;;;;;;;;;;;;;;;;;;1051650;28;3841;-70
2022/03/26 01:28:07;;;;;;;;;;;;;;;;;;1052405;28;2663;-70
2022/03/26 01:28:38;;;;;;;;;;;;;;;;;;1053187;28;3797;-69
2022/03/26 01:29:09;;;;;;;;;;;;;;;;;;1053288;28;2101;-68
2022/03/26 01:29:40;;;;;;;;;;;;;;;;;;1047716;28;4437;-69
2022/03/26 01:30:11;;;;;;;;;;;;;;;;;;1044128;28;2425;-70
2022/03/26 01:30:41;;;;;;;;;;;;;;;;;;1043173;28;3868;-68
2022/03/26 01:31:12;;;;;;;;;;;;;;;;;;1041872;28;1840;-67
2022/03/26 01:31:43;;;;;;;;;;;;;;;;;;1045093;28;3907;-69
2022/03/26 01:32:13;;;;;;;;;;;;;;;;;;1050117;28;2529;-71
2022/03/26 01:32:43;;;;;;;;;;;;;;;;;;1047417;28;3906;-70
2022/03/26 01:33:14;;;;;;;;;;;;;;;;;;1049369;28;2819;-69
2022/03/26 01:33:44;;;;;;;;;;;;;;;;;;1046787;28;3989;-69
2022/03/26 01:34:14;;;;;;;;;;;;;;;;;;1048465;28;2879;-71
2022/03/26 01:34:46;;;;;;;;;;;;;;;;;;1051557;28;3885;-70
2022/03/26 01:35:16;;;;;;;;;;;;;;;;;;1053106;28;2250;-69
2022/03/26 01:35:46;;;;;;;;;;;;;;;;;;1053884;28;3782;-69
2022/03/26 01:36:16;;;;;;;;;;;;;;;;;;1052692;28;2585;-70
2022/03/26 01:36:47;;;;;;;;;;;;;;;;;;1052777;28;3861;-69
2022/03/26 01:37:17;;;;;;;;;;;;;;;;;;1050879;28;2843;-68
2022/03/26 01:37:48;;;;;;;;;;;;;;;;;;1052953;28;3855;-70
2022/03/26 01:38:18;;;;;;;;;;;;;;;;;;1053046;28;2959;-67
2022/03/26 01:38:48;;;;;;;;;;;;;;;;;;1053239;28;3857;-68
2022/03/26 01:39:32;;;;;;;;;;;;;;;;;;1051066;28;2641;-69
2022/03/26 01:40:04;;;;;;;;;;;;;;;;;;1051236;28;3766;-67
2022/03/26 01:40:35;;;;;;;;;;;;;;;;;;1051695;28;3826;-70
2022/03/26 01:41:05;;;;;;;;;;;;;;;;;;1050563;28;2663;-68
2022/03/26 01:41:35;;;;;;;;;;;;;;;;;;1051008;28;3871;-69
2022/03/26 01:42:06;;;;;;;;;;;;;;;;;;1051486;28;3003;-69
2022/03/26 01:42:36;;;;;;;;;;;;;;;;;;1047470;28;3958;-69
2022/03/26 01:43:07;;;;;;;;;;;;;;;;;;1048420;28;2194;-69
2022/03/26 01:43:39;;;;;;;;;;;;;;;;;;1045732;28;3861;-70
2022/03/26 01:44:13;;;;;;;;;;;;;;;;;;1050381;28;2732;-68
2022/03/26 01:44:43;;;;;;;;;;;;;;;;;;1052241;28;3802;-71
2022/03/26 01:45:14;;;;;;;;;;;;;;;;;;1052696;28;2435;-71
2022/03/26 01:45:44;;;;;;;;;;;;;;;;;;1049820;28;3793;-69
2022/03/26 01:46:14;;;;;;;;;;;;;;;;;;1054534;28;3226;-68
2022/03/26 01:46:49;;;;;;;;;;;;;;;;;;1052326;28;3779;-69
2022/03/26 01:47:19;;;;;;;;;;;;;;;;;;1047693;28;2622;-68
2022/03/26 01:47:57;;;;;;;;;;;;;;;;;;1047541;28;3764;-67
2022/03/26 01:48:28;;;;;;;;;;;;;;;;;;1049575;28;2580;-67
2022/03/26 01:48:58;;;;;;;;;;;;;;;;;;1048812;28;3756;-70
2022/03/26 01:49:28;;;;;;;;;;;;;;;;;;1051478;28;2510;-69
2022/03/26 01:49:59;;;;;;;;;;;;;;;;;;1052041;28;3825;-69
2022/03/26 01:50:29;;;;;;;;;;;;;;;;;;1053522;28;2206;-70
2022/03/26 01:51:14;;;;;;;;;;;;;;;;;;1052126;28;3770;-69
2022/03/26 01:51:44;;;;;;;;;;;;;;;;;;1052003;28;3774;-69
2022/03/26 01:52:14;;;;;;;;;;;;;;;;;;1051626;28;2471;-69
2022/03/26 01:52:45;;;;;;;;;;;;;;;;;;1052699;28;3796;-69
2022/03/26 01:53:15;;;;;;;;;;;;;;;;;;1048629;28;2428;-68
2022/03/26 01:53:50;;;;;;;;;;;;;;;;;;1049233;28;3785;-67
2022/03/26 01:54:20;;;;;;;;;;;;;;;;;;1046495;28;1917;-71
2022/03/26 01:54:51;;;;;;;;;;;;;;;;;;1046403;28;4272;-69
2022/03/26 01:55:22;;;;;;;;;;;;;;;;;;1050146;28;2578;-69
2022/03/26 01:55:52;;;;;;;;;;;;;;;;;;1049705;28;3964;-71
2022/03/26 01:56:24;;;;;;;;;;;;;;;;;;1052788;28;2646;-69
2022/03/26 01:56:55;;;;;;;;;;;;;;;;;;1051734;28;4259;-69
2022/03/26 01:57:26;;;;;;;;;;;;;;;;;;1053303;28;2564;-69
2022/03/26 01:57:56;;;;;;;;;;;;;;;;;;1048008;28;3805;-69
2022/03/26 01:58:26;;;;;;;;;;;;;;;;;;1048373;28;3068;-69
2022/03/26 01:58:57;;;;;;;;;;;;;;;;;;1048611;28;3789;-70
2022/03/26 01:59:27;;;;;;;;;;;;;;;;;;1049102;28;2440;-69
2022/03/26 01:59:58;;;;;;;;;;;;;;;;;;1051024;28;3787;-67
2022/03/26 02:00:28;;;;;;;;;;;;;;;;;;1054010;28;2653;-69
2022/03/26 02:00:58;;;;;;;;;;;;;;;;;;1051423;28;3765;-69
2022/03/26 02:01:31;;;;;;;;;;;;;;;;;;1053508;28;2101;-67
2022/03/26 02:02:02;;;;;;;;;;;;;;;;;;1052383;28;3791;-67
2022/03/26 02:02:33;;;;;;;;;;;;;;;;;;1052839;28;3809;-69
2022/03/26 02:03:04;;;;;;;;;;;;;;;;;;1052028;28;3064;-71
2022/03/26 02:03:34;;;;;;;;;;;;;;;;;;1052135;28;4499;-70
2022/03/26 02:04:05;;;;;;;;;;;;;;;;;;1053921;28;1251;-66
2022/03/26 02:04:36;;;;;;;;;;;;;;;;;;1051823;28;3925;-69
2022/03/26 02:05:06;;;;;;;;;;;;;;;;;;1052206;28;2310;-69
2022/03/26 02:05:36;;;;;;;;;;;;;;;;;;1052151;28;3786;-68
2022/03/26 02:06:07;;;;;;;;;;;;;;;;;;1048908;28;2590;-69
2022/03/26 02:06:38;;;;;;;;;;;;;;;;;;1049949;28;3920;-70
2022/03/26 02:07:08;;;;;;;;;;;;;;;;;;1048916;28;2643;-70
2022/03/26 02:07:39;;;;;;;;;;;;;;;;;;1049050;28;3798;-69
2022/03/26 02:08:10;;;;;;;;;;;;;;;;;;1052768;28;2333;-70
2022/03/26 02:08:40;;;;;;;;;;;;;;;;;;1052365;28;3788;-69
2022/03/26 02:09:12;;;;;;;;;;;;;;;;;;1053179;28;2652;-70
2022/03/26 02:09:43;;;;;;;;;;;;;;;;;;1048923;28;3967;-71
2022/03/26 02:10:15;;;;;;;;;;;;;;;;;;1052349;28;3166;-69
2022/03/26 02:10:45;;;;;;;;;;;;;;;;;;1050849;28;3896;-67
2022/03/26 02:11:15;;;;;;;;;;;;;;;;;;1052046;28;3455;-69
2022/03/26 02:11:46;;;;;;;;;;;;;;;;;;1051163;28;4201;-68
2022/03/26 02:12:22;;;;;;;;;;;;;;;;;;1052601;28;2488;-70
2022/03/26 02:12:52;;;;;;;;;;;;;;;;;;1049306;28;3842;-69
2022/03/26 02:13:23;;;;;;;;;;;;;;;;;;1048582;28;2701;-68
2022/03/26 02:13:54;;;;;;;;;;;;;;;;;;1048432;28;3907;-70
2022/03/26 02:14:24;;;;;;;;;;;;;;;;;;1048797;28;2583;-70
2022/03/26 02:15:03;;;;;;;;;;;;;;;;;;1053041;28;3798;-69
2022/03/26 02:15:33;;;;;;;;;;;;;;;;;;1052729;28;3918;-71
2022/03/26 02:16:04;;;;;;;;;;;;;;;;;;1049296;28;2962;-69
2022/03/26 02:16:36;;;;;;;;;;;;;;;;;;1049174;28;4228;-71
2022/03/26 02:17:06;;;;;;;;;;;;;;;;;;1047470;28;2542;-70
2022/03/26 02:17:37;;;;;;;;;;;;;;;;;;1050179;28;3908;-68
2022/03/26 02:18:09;;;;;;;;;;;;;;;;;;1052814;28;2449;-69
2022/03/26 02:18:39;;;;;;;;;;;;;;;;;;1051614;28;3840;-68
2022/03/26 02:19:10;;;;;;;;;;;;;;;;;;1053687;28;2649;-70
2022/03/26 02:19:40;;;;;;;;;;;;;;;;;;1051990;28;3805;-67
2022/03/26 02:20:12;;;;;;;;;;;;;;;;;;1053534;28;3054;-69
2022/03/26 02:20:43;;;;;;;;;;;;;;;;;;1052140;28;3796;-70
2022/03/26 02:21:14;;;;;;;;;;;;;;;;;;1054361;28;1848;-71
2022/03/26 02:21:47;;;;;;;;;;;;;;;;;;1052665;28;3778;-69
2022/03/26 02:22:20;;;;;;;;;;;;;;;;;;1053047;28;2634;-70
2022/03/26 02:22:50;;;;;;;;;;;;;;;;;;1051730;28;3822;-69
2022/03/26 02:23:22;;;;;;;;;;;;;;;;;;1052661;28;2518;-70
2022/03/26 02:23:52;;;;;;;;;;;;;;;;;;1053358;28;4271;-67
2022/03/26 02:24:22;;;;;;;;;;;;;;;;;;1054315;28;1469;-70
2022/03/26 02:24:53;;;;;;;;;;;;;;;;;;1052822;28;3844;-71
2022/03/26 02:25:24;;;;;;;;;;;;;;;;;;1053444;28;1222;-68
2022/03/26 02:25:54;;;;;;;;;;;;;;;;;;1052512;28;3753;-67
2022/03/26 02:26:28;;;;;;;;;;;;;;;;;;1053344;28;2526;-70
2022/03/26 02:26:58;;;;;;;;;;;;;;;;;;1047325;28;5147;-69
2022/03/26 02:27:29;;;;;;;;;;;;;;;;;;1049071;28;2550;-68
2022/03/26 02:27:59;;;;;;;;;;;;;;;;;;1047978;28;3760;-68
2022/03/26 02:28:30;;;;;;;;;;;;;;;;;;1049514;28;2882;-70
2022/03/26 02:29:08;;;;;;;;;;;;;;;;;;1051707;28;3736;-70
2022/03/26 02:29:38;;;;;;;;;;;;;;;;;;1053123;28;3807;-68
2022/03/26 02:30:09;;;;;;;;;;;;;;;;;;1051885;28;3087;-69
2022/03/26 02:30:39;;;;;;;;;;;;;;;;;;1052535;28;3879;-69
2022/03/26 02:31:13;;;;;;;;;;;;;;;;;;1051643;28;4278;-68
2022/03/26 02:31:43;;;;;;;;;;;;;;;;;;1047947;28;3842;-73
2022/03/26 02:32:13;;;;;;;;;;;;;;;;;;1046671;28;3161;-69
2022/03/26 02:32:43;;;;;;;;;;;;;;;;;;1047711;28;4084;-71
2022/03/26 02:33:21;;;;;;;;;;;;;;;;;;1047712;28;2835;-69
2022/03/26 02:33:51;;;;;;;;;;;;;;;;;;1053443;28;3841;-71
2022/03/26 02:34:21;;;;;;;;;;;;;;;;;;1049171;28;2118;-69
2022/03/26 02:34:52;;;;;;;;;;;;;;;;;;1049372;28;4420;-70
2022/03/26 02:35:22;;;;;;;;;;;;;;;;;;1045095;28;2756;-70
2022/03/26 02:35:53;;;;;;;;;;;;;;;;;;1043801;28;3857;-68
2022/03/26 02:36:23;;;;;;;;;;;;;;;;;;1044170;28;2417;-71
2022/03/26 02:36:54;;;;;;;;;;;;;;;;;;1043562;28;4239;-71
2022/03/26 02:37:24;;;;;;;;;;;;;;;;;;1049259;28;2935;-70
2022/03/26 02:37:54;;;;;;;;;;;;;;;;;;1048678;28;3795;-67
2022/03/26 02:38:24;;;;;;;;;;;;;;;;;;1052505;28;2318;-70
2022/03/26 02:38:55;;;;;;;;;;;;;;;;;;1047939;28;3788;-69
2022/03/26 02:39:38;;;;;;;;;;;;;;;;;;1047765;28;2854;-69
2022/03/26 02:40:18;;;;;;;;;;;;;;;;;;1040510;28;3553;-71
2022/03/26 02:40:48;;;;;;;;;;;;;;;;;;1041412;28;3766;-67
2022/03/26 02:41:18;;;;;;;;;;;;;;;;;;1042815;28;2737;-69
2022/03/26 02:41:48;;;;;;;;;;;;;;;;;;1045057;28;3935;-69
2022/03/26 02:42:19;;;;;;;;;;;;;;;;;;1044060;28;2925;-68
2022/03/26 02:42:49;;;;;;;;;;;;;;;;;;1041320;28;3781;-71
2022/03/26 02:43:19;;;;;;;;;;;;;;;;;;1044992;28;2617;-69
2022/03/26 02:43:49;;;;;;;;;;;;;;;;;;1042984;28;3789;-70
2022/03/26 02:44:20;;;;;;;;;;;;;;;;;;1043919;28;2936;-67
2022/03/26 02:44:51;;;;;;;;;;;;;;;;;;1043541;28;3777;-67
2022/03/26 02:45:22;;;;;;;;;;;;;;;;;;1044778;28;1905;-69
2022/03/26 02:45:52;;;;;;;;;;;;;;;;;;1043912;28;4229;-71
2022/03/26 02:46:22;;;;;;;;;;;;;;;;;;1044160;28;3257;-71
2022/03/26 02:46:53;;;;;;;;;;;;;;;;;;1043886;28;3889;-69
2022/03/26 02:47:23;;;;;;;;;;;;;;;;;;1043429;28;2963;-69
2022/03/26 02:47:54;;;;;;;;;;;;;;;;;;1043428;28;3795;-67
2022/03/26 02:48:24;;;;;;;;;;;;;;;;;;1044961;28;3091;-70
2022/03/26 02:48:55;;;;;;;;;;;;;;;;;;1044158;28;3756;-69
2022/03/26 02:49:25;;;;;;;;;;;;;;;;;;1045981;28;2977;-69
2022/03/26 02:49:55;;;;;;;;;;;;;;;;;;1043271;28;3764;-69
2022/03/26 02:50:25;;;;;;;;;;;;;;;;;;1041928;28;3071;-69
2022/03/26 02:50:56;;;;;;;;;;;;;;;;;;1041884;28;4016;-68
2022/03/26 02:51:26;;;;;;;;;;;;;;;;;;1039831;28;2684;-68
2022/03/26 02:51:56;;;;;;;;;;;;;;;;;;1039728;28;3951;-70
2022/03/26 02:52:27;;;;;;;;;;;;;;;;;;1040588;28;3140;-68
2022/03/26 02:52:57;;;;;;;;;;;;;;;;;;1043746;28;3898;-68
2022/03/26 02:53:27;;;;;;;;;;;;;;;;;;1044738;28;2003;-69
2022/03/26 02:53:57;;;;;;;;;;;;;;;;;;1043265;28;3805;-69
2022/03/26 02:54:28;;;;;;;;;;;;;;;;;;1044454;28;2562;-69
2022/03/26 02:54:58;;;;;;;;;;;;;;;;;;1043606;28;3918;-70
2022/03/26 02:55:28;;;;;;;;;;;;;;;;;;1045524;28;2350;-70
2022/03/26 02:55:58;;;;;;;;;;;;;;;;;;1043874;28;3739;-69
2022/03/26 02:56:29;;;;;;;;;;;;;;;;;;1044091;28;2429;-67
2022/03/26 02:56:59;;;;;;;;;;;;;;;;;;1046757;28;3777;-70
2022/03/26 02:57:29;;;;;;;;;;;;;;;;;;1049356;28;2769;-70
2022/03/26 02:58:00;;;;;;;;;;;;;;;;;;1046588;28;3856;-69
2022/03/26 02:58:30;;;;;;;;;;;;;;;;;;1046637;28;2979;-67
2022/03/26 02:59:00;;;;;;;;;;;;;;;;;;1046263;28;3883;-71
2022/03/26 02:59:31;;;;;;;;;;;;;;;;;;1050102;28;2412;-69
2022/03/26 03:00:01;;;;;;;;;;;;;;;;;;1044856;28;3807;-72
2022/03/26 03:00:31;;;;;;;;;;;;;;;;;;1048207;28;2905;-67
2022/03/26 03:01:02;;;;;;;;;;;;;;;;;;1046811;28;3903;-68
2022/03/26 03:01:32;;;;;;;;;;;;;;;;;;1049647;28;3778;-69
2022/03/26 03:02:02;;;;;;;;;;;;;;;;;;1049252;28;2374;-69
2022/03/26 03:02:34;;;;;;;;;;;;;;;;;;1044927;28;3808;-70
2022/03/26 03:03:06;;;;;;;;;;;;;;;;;;1044074;28;2939;-71
2022/03/26 03:03:36;;;;;;;;;;;;;;;;;;1045710;28;3884;-69
2022/03/26 03:04:07;;;;;;;;;;;;;;;;;;1046315;28;2585;-71
2022/03/26 03:04:38;;;;;;;;;;;;;;;;;;1043515;28;3817;-67
2022/03/26 03:05:09;;;;;;;;;;;;;;;;;;1045835;28;2460;-72
2022/03/26 03:05:39;;;;;;;;;;;;;;;;;;1045337;28;3956;-70
2022/03/26 03:06:09;;;;;;;;;;;;;;;;;;1046368;28;3001;-71
2022/03/26 03:06:39;;;;;;;;;;;;;;;;;;1043440;28;4417;-69
2022/03/26 03:07:10;;;;;;;;;;;;;;;;;;1046476;28;1230;-72
2022/03/26 03:07:40;;;;;;;;;;;;;;;;;;1045307;28;3790;-69
2022/03/26 03:08:10;;;;;;;;;;;;;;;;;;1045069;28;2915;-69
2022/03/26 03:08:41;;;;;;;;;;;;;;;;;;1045395;28;3817;-69
2022/03/26 03:09:11;;;;;;;;;;;;;;;;;;1045173;28;2932;-70
2022/03/26 03:09:41;;;;;;;;;;;;;;;;;;1045023;28;3903;-68
2022/03/26 03:10:15;;;;;;;;;;;;;;;;;;1044817;28;2610;-72
2022/03/26 03:10:46;;;;;;;;;;;;;;;;;;1045126;28;3786;-71
2022/03/26 03:11:17;;;;;;;;;;;;;;;;;;1049110;28;2536;-71
2022/03/26 03:11:48;;;;;;;;;;;;;;;;;;1043351;28;3816;-68
2022/03/26 03:12:20;;;;;;;;;;;;;;;;;;1044481;28;2888;-68
2022/03/26 03:12:50;;;;;;;;;;;;;;;;;;1045157;28;3771;-69
2022/03/26 03:13:22;;;;;;;;;;;;;;;;;;1045397;28;2956;-69
2022/03/26 03:13:52;;;;;;;;;;;;;;;;;;1043910;28;3888;-70
2022/03/26 03:14:22;;;;;;;;;;;;;;;;;;1044718;28;3900;-68
2022/03/26 03:14:52;;;;;;;;;;;;;;;;;;1043842;28;3933;-71
2022/03/26 03:15:23;;;;;;;;;;;;;;;;;;1047101;28;2307;-73
2022/03/26 03:15:53;;;;;;;;;;;;;;;;;;1045603;28;4205;-70
2022/03/26 03:16:23;;;;;;;;;;;;;;;;;;1044175;28;2732;-69
2022/03/26 03:16:54;;;;;;;;;;;;;;;;;;1045270;28;4683;-70
2022/03/26 03:17:24;;;;;;;;;;;;;;;;;;1046387;28;1324;-69
2022/03/26 03:17:54;;;;;;;;;;;;;;;;;;1044365;28;3776;-71
2022/03/26 03:18:25;;;;;;;;;;;;;;;;;;1045758;28;2483;-68
2022/03/26 03:18:55;;;;;;;;;;;;;;;;;;1044813;28;3771;-71
2022/03/26 03:19:25;;;;;;;;;;;;;;;;;;1044014;28;2933;-67
2022/03/26 03:19:56;;;;;;;;;;;;;;;;;;1048101;28;3896;-69
2022/03/26 03:20:26;;;;;;;;;;;;;;;;;;1049194;28;2388;-69
2022/03/26 03:20:56;;;;;;;;;;;;;;;;;;1048636;28;3787;-69
2022/03/26 03:21:27;;;;;;;;;;;;;;;;;;1048643;28;3051;-70
2022/03/26 03:21:57;;;;;;;;;;;;;;;;;;1043255;28;3759;-68
2022/03/26 03:22:27;;;;;;;;;;;;;;;;;;1045779;28;2331;-68
2022/03/26 03:22:57;;;;;;;;;;;;;;;;;;1044016;28;4693;-69
2022/03/26 03:23:28;;;;;;;;;;;;;;;;;;1045420;28;2432;-69
2022/03/26 03:23:58;;;;;;;;;;;;;;;;;;1044013;28;3781;-68
2022/03/26 03:24:28;;;;;;;;;;;;;;;;;;1045749;28;2677;-69
2022/03/26 03:24:58;;;;;;;;;;;;;;;;;;1042296;28;3756;-69
2022/03/26 03:25:30;;;;;;;;;;;;;;;;;;1046208;28;2534;-69
2022/03/26 03:26:00;;;;;;;;;;;;;;;;;;1043776;28;3812;-67
2022/03/26 03:26:31;;;;;;;;;;;;;;;;;;1046258;28;2289;-68
2022/03/26 03:27:01;;;;;;;;;;;;;;;;;;1043610;28;3743;-68
2022/03/26 03:27:32;;;;;;;;;;;;;;;;;;1045560;28;2830;-67
2022/03/26 03:28:02;;;;;;;;;;;;;;;;;;1045024;28;3997;-69
2022/03/26 03:28:33;;;;;;;;;;;;;;;;;;1045462;28;3793;-68
2022/03/26 03:29:03;;;;;;;;;;;;;;;;;;1045644;28;2527;-68
2022/03/26 03:29:34;;;;;;;;;;;;;;;;;;1045785;28;3770;-71
2022/03/26 03:30:04;;;;;;;;;;;;;;;;;;1044857;28;2432;-68
2022/03/26 03:30:35;;;;;;;;;;;;;;;;;;1044534;28;3785;-70
2022/03/26 03:31:05;;;;;;;;;;;;;;;;;;1045294;28;2539;-69
2022/03/26 03:31:37;;;;;;;;;;;;;;;;;;1045872;28;3775;-71
2022/03/26 03:32:07;;;;;;;;;;;;;;;;;;1048181;28;2311;-68
2022/03/26 03:32:37;;;;;;;;;;;;;;;;;;1049167;28;3789;-68
2022/03/26 03:33:15;;;;;;;;;;;;;;;;;;1047982;28;2583;-67
2022/03/26 03:33:46;;;;;;;;;;;;;;;;;;1046043;28;3793;-70
2022/03/26 03:34:16;;;;;;;;;;;;;;;;;;1045894;28;2796;-69
2022/03/26 03:34:47;;;;;;;;;;;;;;;;;;1044390;28;3809;-69